sensor_id;sensor_type;location;lat;lon;timestamp;pressure;altitude;pressure_sealevel;temperature;humidity
70158;BME280;57524;48.312;7.938;2022-07-11T00:01:03;99954.25;;;16.30;53.93
70158;BME280;57524;48.312;7.938;2022-07-11T00:03:30;99956.94;;;16.29;54.27
70158;BME280;57524;48.312;7.938;2022-07-11T00:05:58;99957.13;;;16.24;54.18
70158;BME280;57524;48.312;7.938;2022-07-11T00:08:24;99957.25;;;16.21;54.30
70158;BME280;57524;48.312;7.938;2022-07-11T00:10:51;99948.28;;;16.24;54.35
70158;BME280;57524;48.312;7.938;2022-07-11T00:13:19;99956.28;;;16.22;54.30
70158;BME280;57524;48.312;7.938;2022-07-11T00:15:45;99954.25;;;16.30;53.99
70158;BME280;57524;48.312;7.938;2022-07-11T00:18:12;99950.75;;;16.28;54.00
70158;BME280;57524;48.312;7.938;2022-07-11T00:20:38;99952.69;;;16.23;54.27
70158;BME280;57524;48.312;7.938;2022-07-11T00:23:06;99950.44;;;16.12;54.33
70158;BME280;57524;48.312;7.938;2022-07-11T00:25:33;99938.19;;;16.08;54.52
70158;BME280;57524;48.312;7.938;2022-07-11T00:27:59;99946.31;;;16.04;54.66
70158;BME280;57524;48.312;7.938;2022-07-11T00:30:26;99941.09;;;16.00;54.88
70158;BME280;57524;48.312;7.938;2022-07-11T00:32:53;99947.59;;;15.92;54.94
70158;BME280;57524;48.312;7.938;2022-07-11T00:35:19;99940.69;;;15.88;55.20
70158;BME280;57524;48.312;7.938;2022-07-11T00:37:46;99945.09;;;15.87;55.23
70158;BME280;57524;48.312;7.938;2022-07-11T00:40:14;99947.72;;;15.89;55.07
70158;BME280;57524;48.312;7.938;2022-07-11T00:42:41;99943.69;;;15.77;55.34
70158;BME280;57524;48.312;7.938;2022-07-11T00:45:08;99951.84;;;15.72;55.28
70158;BME280;57524;48.312;7.938;2022-07-11T00:47:34;99953.63;;;15.70;55.31
70158;BME280;57524;48.312;7.938;2022-07-11T00:50:01;99955.41;;;15.71;55.41
70158;BME280;57524;48.312;7.938;2022-07-11T00:52:28;99948.31;;;15.72;55.30
70158;BME280;57524;48.312;7.938;2022-07-11T00:54:56;99950.06;;;15.71;55.30
70158;BME280;57524;48.312;7.938;2022-07-11T00:57:24;99950.06;;;15.71;55.33
70158;BME280;57524;48.312;7.938;2022-07-11T00:59:51;99951.84;;;15.72;55.34
70158;BME280;57524;48.312;7.938;2022-07-11T01:02:19;99949.22;;;15.71;55.26
70158;BME280;57524;48.312;7.938;2022-07-11T01:04:46;99937.81;;;15.67;55.33
70158;BME280;57524;48.312;7.938;2022-07-11T01:07:12;99943.50;;;15.55;55.75
70158;BME280;57524;48.312;7.938;2022-07-11T01:09:39;99940.16;;;15.50;55.78
70158;BME280;57524;48.312;7.938;2022-07-11T01:12:06;99942.06;;;15.45;56.00
70158;BME280;57524;48.312;7.938;2022-07-11T01:14:35;99936.75;;;15.45;55.83
70158;BME280;57524;48.312;7.938;2022-07-11T01:17:03;99935.16;;;15.41;55.96
70158;BME280;57524;48.312;7.938;2022-07-11T01:19:30;99940.47;;;15.41;55.98
70158;BME280;57524;48.312;7.938;2022-07-11T01:22:01;99943.81;;;15.46;55.91
70158;BME280;57524;48.312;7.938;2022-07-11T01:24:31;99936.69;;;15.48;55.92
70158;BME280;57524;48.312;7.938;2022-07-11T01:26:58;99936.75;;;15.45;55.88
70158;BME280;57524;48.312;7.938;2022-07-11T01:29:24;99935.03;;;15.44;55.79
70158;BME280;57524;48.312;7.938;2022-07-11T01:31:51;99927.88;;;15.46;55.75
70158;BME280;57524;48.312;7.938;2022-07-11T01:34:17;99921.84;;;15.41;55.81
70158;BME280;57524;48.312;7.938;2022-07-11T01:36:44;99919.19;;;15.41;55.86
70158;BME280;57524;48.312;7.938;2022-07-11T01:39:11;99927.47;;;15.31;56.16
70158;BME280;57524;48.312;7.938;2022-07-11T01:41:39;99917.88;;;15.27;56.14
70158;BME280;57524;48.312;7.938;2022-07-11T01:44:05;99924.16;;;15.25;56.62
70158;BME280;57524;48.312;7.938;2022-07-11T01:46:32;99917.03;;;15.25;56.35
70158;BME280;57524;48.312;7.938;2022-07-11T01:48:59;99922.59;;;15.17;56.34
70158;BME280;57524;48.312;7.938;2022-07-11T01:51:25;99916.41;;;15.17;56.36
70158;BME280;57524;48.312;7.938;2022-07-11T01:53:54;99915.59;;;15.15;56.60
70158;BME280;57524;48.312;7.938;2022-07-11T01:56:21;99914.78;;;15.13;56.57
70158;BME280;57524;48.312;7.938;2022-07-11T01:58:49;99913.91;;;15.12;56.50
70158;BME280;57524;48.312;7.938;2022-07-11T02:01:15;99906.09;;;15.08;56.58
70158;BME280;57524;48.312;7.938;2022-07-11T02:03:42;99911.59;;;15.02;56.67
70158;BME280;57524;48.312;7.938;2022-07-11T02:06:09;99910.16;;;14.91;56.91
70158;BME280;57524;48.312;7.938;2022-07-11T02:08:36;99905.88;;;14.86;57.16
70158;BME280;57524;48.312;7.938;2022-07-11T02:11:03;99908.63;;;14.84;57.28
70158;BME280;57524;48.312;7.938;2022-07-11T02:13:29;99905.13;;;14.82;57.31
70158;BME280;57524;48.312;7.938;2022-07-11T02:15:57;99908.53;;;14.86;57.30
70158;BME280;57524;48.312;7.938;2022-07-11T02:18:24;99906.84;;;14.83;57.16
70158;BME280;57524;48.312;7.938;2022-07-11T02:20:51;99908.69;;;14.81;57.47
70158;BME280;57524;48.312;7.938;2022-07-11T02:23:19;99911.38;;;14.80;57.36
70158;BME280;57524;48.312;7.938;2022-07-11T02:25:46;99912.56;;;14.71;57.63
70158;BME280;57524;48.312;7.938;2022-07-11T02:28:13;99909.09;;;14.69;57.60
70158;BME280;57524;48.312;7.938;2022-07-11T02:30:42;99912.91;;;14.59;57.99
70158;BME280;57524;48.312;7.938;2022-07-11T02:33:10;99909.50;;;14.53;58.07
70158;BME280;57524;48.312;7.938;2022-07-11T02:35:41;99912.34;;;14.47;58.20
70158;BME280;57524;48.312;7.938;2022-07-11T02:38:08;99914.81;;;14.53;57.90
70158;BME280;57524;48.312;7.938;2022-07-11T02:40:34;99914.09;;;14.48;57.80
70158;BME280;57524;48.312;7.938;2022-07-11T02:43:02;99915.16;;;14.41;58.06
70158;BME280;57524;48.312;7.938;2022-07-11T02:45:29;99913.50;;;14.37;58.34
70158;BME280;57524;48.312;7.938;2022-07-11T02:47:56;99910.13;;;14.32;58.62
70158;BME280;57524;48.312;7.938;2022-07-11T02:50:23;99908.19;;;14.37;58.36
70158;BME280;57524;48.312;7.938;2022-07-11T02:52:50;99915.25;;;14.38;58.32
70158;BME280;57524;48.312;7.938;2022-07-11T02:55:17;99924.22;;;14.34;58.46
70158;BME280;57524;48.312;7.938;2022-07-11T02:57:43;99922.50;;;14.33;58.53
70158;BME280;57524;48.312;7.938;2022-07-11T03:00:12;99909.25;;;14.31;58.59
70158;BME280;57524;48.312;7.938;2022-07-11T03:02:40;99922.56;;;14.30;58.66
70158;BME280;57524;48.312;7.938;2022-07-11T03:05:07;99912.59;;;14.38;58.39
70158;BME280;57524;48.312;7.938;2022-07-11T03:07:35;99914.28;;;14.41;58.35
70158;BME280;57524;48.312;7.938;2022-07-11T03:10:02;99917.91;;;14.38;58.43
70158;BME280;57524;48.312;7.938;2022-07-11T03:12:29;99914.47;;;14.34;58.50
70158;BME280;57524;48.312;7.938;2022-07-11T03:14:56;99911.78;;;14.36;58.32
70158;BME280;57524;48.312;7.938;2022-07-11T03:17:23;99905.53;;;14.37;58.39
70158;BME280;57524;48.312;7.938;2022-07-11T03:19:49;99900.31;;;14.35;58.63
70158;BME280;57524;48.312;7.938;2022-07-11T03:22:16;99903.78;;;14.38;58.34
70158;BME280;57524;48.312;7.938;2022-07-11T03:24:44;99904.91;;;14.29;58.66
70158;BME280;57524;48.312;7.938;2022-07-11T03:27:11;99906.88;;;14.22;58.72
70158;BME280;57524;48.312;7.938;2022-07-11T03:29:38;99914.22;;;14.12;58.99
70158;BME280;57524;48.312;7.938;2022-07-11T03:32:06;99907.34;;;14.05;59.20
70158;BME280;57524;48.312;7.938;2022-07-11T03:34:33;99914.66;;;13.97;59.39
70158;BME280;57524;48.312;7.938;2022-07-11T03:36:59;99910.91;;;14.04;59.30
70158;BME280;57524;48.312;7.938;2022-07-11T03:39:27;99920.72;;;14.01;59.32
70158;BME280;57524;48.312;7.938;2022-07-11T03:41:55;99914.66;;;13.97;59.20
70158;BME280;57524;48.312;7.938;2022-07-11T03:44:22;99914.00;;;13.87;59.70
70158;BME280;57524;48.312;7.938;2022-07-11T03:46:49;99913.16;;;13.87;59.72
70158;BME280;57524;48.312;7.938;2022-07-11T03:49:16;99906.97;;;13.88;59.78
70158;BME280;57524;48.312;7.938;2022-07-11T03:51:42;99908.69;;;13.89;59.93
70158;BME280;57524;48.312;7.938;2022-07-11T03:54:09;99909.41;;;13.94;59.90
70158;BME280;57524;48.312;7.938;2022-07-11T03:56:36;99909.34;;;13.97;59.85
70158;BME280;57524;48.312;7.938;2022-07-11T03:59:04;99907.53;;;13.99;59.71
70158;BME280;57524;48.312;7.938;2022-07-11T04:01:30;99909.16;;;14.03;59.66
70158;BME280;57524;48.312;7.938;2022-07-11T04:03:57;99903.78;;;14.06;59.48
70158;BME280;57524;48.312;7.938;2022-07-11T04:06:23;99907.44;;;14.02;59.77
70158;BME280;57524;48.312;7.938;2022-07-11T04:08:50;99902.22;;;13.99;59.84
70158;BME280;57524;48.312;7.938;2022-07-11T04:11:16;99901.34;;;13.99;59.78
70158;BME280;57524;48.312;7.938;2022-07-11T04:13:43;99902.22;;;13.99;59.73
70158;BME280;57524;48.312;7.938;2022-07-11T04:16:11;99897.94;;;13.93;59.86
70158;BME280;57524;48.312;7.938;2022-07-11T04:18:37;99899.81;;;13.90;59.82
70158;BME280;57524;48.312;7.938;2022-07-11T04:21:04;99893.59;;;13.91;60.11
70158;BME280;57524;48.312;7.938;2022-07-11T04:23:31;99900.72;;;13.89;59.94
70158;BME280;57524;48.312;7.938;2022-07-11T04:25:58;99905.69;;;14.01;59.70
70158;BME280;57524;48.312;7.938;2022-07-11T04:28:24;99897.00;;;13.96;59.87
70158;BME280;57524;48.312;7.938;2022-07-11T04:30:51;99897.66;;;14.04;59.64
70158;BME280;57524;48.312;7.938;2022-07-11T04:33:19;99904.75;;;14.04;59.86
70158;BME280;57524;48.312;7.938;2022-07-11T04:35:45;99905.69;;;14.01;59.94
70158;BME280;57524;48.312;7.938;2022-07-11T04:38:12;99906.59;;;14.00;59.92
70158;BME280;57524;48.312;7.938;2022-07-11T04:40:38;99904.81;;;14.01;60.17
70158;BME280;57524;48.312;7.938;2022-07-11T04:43:05;99901.31;;;14.00;60.19
70158;BME280;57524;48.312;7.938;2022-07-11T04:45:32;99904.03;;;13.97;60.05
70158;BME280;57524;48.312;7.938;2022-07-11T04:47:58;99903.13;;;13.98;60.33
70158;BME280;57524;48.312;7.938;2022-07-11T04:50:28;99905.69;;;14.01;60.38
70158;BME280;57524;48.312;7.938;2022-07-11T04:52:55;99907.47;;;14.01;60.73
70158;BME280;57524;48.312;7.938;2022-07-11T04:55:21;99900.19;;;14.09;60.21
70158;BME280;57524;48.312;7.938;2022-07-11T04:57:48;99907.16;;;14.11;60.24
70158;BME280;57524;48.312;7.938;2022-07-11T05:00:15;99909.91;;;14.08;60.07
70158;BME280;57524;48.312;7.938;2022-07-11T05:02:42;99912.47;;;14.11;60.24
70158;BME280;57524;48.312;7.938;2022-07-11T05:05:09;99906.16;;;14.17;60.38
70158;BME280;57524;48.312;7.938;2022-07-11T05:07:41;99910.50;;;14.20;60.21
70158;BME280;57524;48.312;7.938;2022-07-11T05:10:16;99903.03;;;14.32;60.14
70158;BME280;57524;48.312;7.938;2022-07-11T05:12:45;99901.75;;;14.46;59.85
70158;BME280;57524;48.312;7.938;2022-07-11T05:15:11;99902.34;;;14.57;59.79
70158;BME280;57524;48.312;7.938;2022-07-11T05:17:38;99898.34;;;14.72;59.13
70158;BME280;57524;48.312;7.938;2022-07-11T05:20:05;99903.56;;;14.75;59.33
70158;BME280;57524;48.312;7.938;2022-07-11T05:22:32;99904.50;;;14.74;59.60
70158;BME280;57524;48.312;7.938;2022-07-11T05:25:00;99901.84;;;14.74;59.81
70158;BME280;57524;48.312;7.938;2022-07-11T05:27:27;99898.19;;;14.78;59.57
70158;BME280;57524;48.312;7.938;2022-07-11T05:29:54;99908.63;;;14.84;59.70
70158;BME280;57524;48.312;7.938;2022-07-11T05:32:20;99904.91;;;14.88;59.47
70158;BME280;57524;48.312;7.938;2022-07-11T05:34:47;99908.22;;;14.96;59.32
70158;BME280;57524;48.312;7.938;2022-07-11T05:37:13;99907.91;;;15.06;59.21
70158;BME280;57524;48.312;7.938;2022-07-11T05:39:41;99905.91;;;15.14;59.10
70158;BME280;57524;48.312;7.938;2022-07-11T05:42:09;99914.38;;;15.25;58.97
70158;BME280;57524;48.312;7.938;2022-07-11T05:44:35;99905.16;;;15.35;58.71
70158;BME280;57524;48.312;7.938;2022-07-11T05:47:02;99903.13;;;15.44;58.65
70158;BME280;57524;48.312;7.938;2022-07-11T05:49:31;99906.31;;;15.55;58.40
70158;BME280;57524;48.312;7.938;2022-07-11T05:51:58;99914.91;;;15.63;58.20
70158;BME280;57524;48.312;7.938;2022-07-11T05:54:24;99904.03;;;15.69;58.14
70158;BME280;57524;48.312;7.938;2022-07-11T05:56:51;99903.84;;;15.75;57.90
70158;BME280;57524;48.312;7.938;2022-07-11T05:59:19;99900.06;;;15.83;57.84
70158;BME280;57524;48.312;7.938;2022-07-11T06:01:46;99902.38;;;15.92;57.92
70158;BME280;57524;48.312;7.938;2022-07-11T06:04:12;99900.31;;;16.00;58.02
70158;BME280;57524;48.312;7.938;2022-07-11T06:06:40;99892.13;;;16.06;58.10
70158;BME280;57524;48.312;7.938;2022-07-11T06:09:06;99890.06;;;16.14;58.35
70158;BME280;57524;48.312;7.938;2022-07-11T06:11:32;99893.28;;;16.23;58.12
70158;BME280;57524;48.312;7.938;2022-07-11T06:13:58;99900.03;;;16.33;57.72
70158;BME280;57524;48.312;7.938;2022-07-11T06:16:26;99892.59;;;16.41;57.81
70158;BME280;57524;48.312;7.938;2022-07-11T06:18:53;99896.63;;;16.53;57.65
70158;BME280;57524;48.312;7.938;2022-07-11T06:21:20;99891.78;;;16.62;57.17
70158;BME280;57524;48.312;7.938;2022-07-11T06:23:47;99900.38;;;16.71;57.44
70158;BME280;57524;48.312;7.938;2022-07-11T06:26:13;99892.91;;;16.79;57.11
70158;BME280;57524;48.312;7.938;2022-07-11T06:28:41;99901.38;;;16.90;57.33
70158;BME280;57524;48.312;7.938;2022-07-11T06:31:08;99897.44;;;17.00;56.97
70158;BME280;57524;48.312;7.938;2022-07-11T06:33:36;99893.59;;;17.08;56.39
70158;BME280;57524;48.312;7.938;2022-07-11T06:36:04;99896.81;;;17.16;56.63
70158;BME280;57524;48.312;7.938;2022-07-11T06:38:31;99886.03;;;17.19;56.72
70158;BME280;57524;48.312;7.938;2022-07-11T06:40:59;99894.63;;;17.25;56.72
70158;BME280;57524;48.312;7.938;2022-07-11T06:43:26;99884.59;;;17.32;56.31
70158;BME280;57524;48.312;7.938;2022-07-11T06:45:54;99883.41;;;17.39;56.27
70158;BME280;57524;48.312;7.938;2022-07-11T06:48:20;99884.09;;;17.44;56.18
70158;BME280;57524;48.312;7.938;2022-07-11T06:50:48;99882.03;;;17.51;55.70
70158;BME280;57524;48.312;7.938;2022-07-11T06:53:15;99884.22;;;17.62;56.00
70158;BME280;57524;48.312;7.938;2022-07-11T06:55:42;99872.28;;;17.71;55.79
70158;BME280;57524;48.312;7.938;2022-07-11T06:58:09;99879.88;;;17.80;55.73
70158;BME280;57524;48.312;7.938;2022-07-11T07:00:36;99890.28;;;17.88;54.70
70158;BME280;57524;48.312;7.938;2022-07-11T07:03:02;99878.31;;;17.96;54.81
70158;BME280;57524;48.312;7.938;2022-07-11T07:05:30;99887.84;;;18.02;54.00
70158;BME280;57524;48.312;7.938;2022-07-11T07:07:58;99885.72;;;18.10;53.87
70158;BME280;57524;48.312;7.938;2022-07-11T07:10:24;99879.22;;;18.16;54.04
70158;BME280;57524;48.312;7.938;2022-07-11T07:12:51;99881.56;;;18.23;54.15
70158;BME280;57524;48.312;7.938;2022-07-11T07:15:17;99876.06;;;18.26;53.35
70158;BME280;57524;48.312;7.938;2022-07-11T07:17:44;99875.78;;;18.33;53.03
70158;BME280;57524;48.312;7.938;2022-07-11T07:20:11;99869.22;;;18.40;53.27
70158;BME280;57524;48.312;7.938;2022-07-11T07:22:38;99866.41;;;18.43;53.16
70158;BME280;57524;48.312;7.938;2022-07-11T07:25:08;99874.94;;;18.51;52.96
70158;BME280;57524;48.312;7.938;2022-07-11T07:27:35;99876.38;;;18.58;53.46
70158;BME280;57524;48.312;7.938;2022-07-11T07:30:03;99861.94;;;18.62;53.19
70158;BME280;57524;48.312;7.938;2022-07-11T07:32:29;99865.13;;;18.70;52.61
70158;BME280;57524;48.312;7.938;2022-07-11T07:34:56;99870.16;;;18.77;52.09
70158;BME280;57524;48.312;7.938;2022-07-11T07:37:24;99871.53;;;18.85;52.23
70158;BME280;57524;48.312;7.938;2022-07-11T07:39:50;99876.53;;;18.93;52.49
70158;BME280;57524;48.312;7.938;2022-07-11T07:42:18;99869.03;;;19.01;52.23
70158;BME280;57524;48.312;7.938;2022-07-11T07:44:45;99866.81;;;19.09;51.64
70158;BME280;57524;48.312;7.938;2022-07-11T07:47:12;99861.16;;;19.16;51.79
70158;BME280;57524;48.312;7.938;2022-07-11T07:49:38;99860.72;;;19.25;51.18
70158;BME280;57524;48.312;7.938;2022-07-11T07:52:05;99854.03;;;19.34;50.88
70158;BME280;57524;48.312;7.938;2022-07-11T07:54:32;99854.59;;;19.40;50.52
70158;BME280;57524;48.312;7.938;2022-07-11T07:56:58;99859.63;;;19.46;50.51
70158;BME280;57524;48.312;7.938;2022-07-11T07:59:26;99859.28;;;19.52;50.29
70158;BME280;57524;48.312;7.938;2022-07-11T08:01:53;99857.16;;;19.59;50.22
70158;BME280;57524;48.312;7.938;2022-07-11T08:04:18;99853.13;;;19.69;50.34
70158;BME280;57524;48.312;7.938;2022-07-11T08:06:45;99849.88;;;19.63;50.03
70158;BME280;57524;48.312;7.938;2022-07-11T08:09:12;99848.28;;;19.59;50.37
70158;BME280;57524;48.312;7.938;2022-07-11T08:11:39;99850.47;;;19.68;49.79
70158;BME280;57524;48.312;7.938;2022-07-11T08:14:07;99843.88;;;19.75;49.87
70158;BME280;57524;48.312;7.938;2022-07-11T08:16:35;99842.41;;;19.87;49.65
70158;BME280;57524;48.312;7.938;2022-07-11T08:19:03;99849.84;;;19.98;49.66
70158;BME280;57524;48.312;7.938;2022-07-11T08:21:32;99846.59;;;20.08;48.96
70158;BME280;57524;48.312;7.938;2022-07-11T08:23:58;99845.22;;;20.17;48.41
70158;BME280;57524;48.312;7.938;2022-07-11T08:26:26;99844.72;;;20.26;48.31
70158;BME280;57524;48.312;7.938;2022-07-11T08:28:52;99841.53;;;20.35;48.14
70158;BME280;57524;48.312;7.938;2022-07-11T08:31:19;99835.59;;;20.46;48.20
70158;BME280;57524;48.312;7.938;2022-07-11T08:33:47;99839.44;;;20.58;48.80
70158;BME280;57524;48.312;7.938;2022-07-11T08:36:14;99836.25;;;20.67;48.16
70158;BME280;57524;48.312;7.938;2022-07-11T08:38:40;99837.88;;;20.54;47.69
70158;BME280;57524;48.312;7.938;2022-07-11T08:41:12;99837.19;;;20.66;47.64
70158;BME280;57524;48.312;7.938;2022-07-11T08:43:40;99835.09;;;20.71;48.31
70158;BME280;57524;48.312;7.938;2022-07-11T08:46:08;99840.13;;;20.77;48.29
70158;BME280;57524;48.312;7.938;2022-07-11T08:48:38;99834.09;;;20.90;48.07
70158;BME280;57524;48.312;7.938;2022-07-11T08:51:06;99831.94;;;20.81;47.99
70158;BME280;57524;48.312;7.938;2022-07-11T08:53:38;99828.72;;;20.90;47.80
70158;BME280;57524;48.312;7.938;2022-07-11T08:56:08;99825.00;;;20.76;47.85
70158;BME280;57524;48.312;7.938;2022-07-11T08:58:36;99832.53;;;20.86;47.49
70158;BME280;57524;48.312;7.938;2022-07-11T09:01:04;99820.16;;;20.99;47.11
70158;BME280;57524;48.312;7.938;2022-07-11T09:03:31;99823.06;;;21.10;47.25
70158;BME280;57524;48.312;7.938;2022-07-11T09:05:59;99825.19;;;21.20;46.53
70158;BME280;57524;48.312;7.938;2022-07-11T09:08:28;99822.94;;;21.28;47.18
70158;BME280;57524;48.312;7.938;2022-07-11T09:10:55;99817.06;;;21.21;46.34
70158;BME280;57524;48.312;7.938;2022-07-11T09:13:27;99822.09;;;21.11;47.10
70158;BME280;57524;48.312;7.938;2022-07-11T09:16:00;99816.09;;;21.22;46.20
70158;BME280;57524;48.312;7.938;2022-07-11T09:18:30;99818.38;;;21.14;46.63
70158;BME280;57524;48.312;7.938;2022-07-11T09:20:57;99819.69;;;21.07;47.40
70158;BME280;57524;48.312;7.938;2022-07-11T09:23:44;99817.75;;;21.25;46.95
70158;BME280;57524;48.312;7.938;2022-07-11T09:26:29;99812.59;;;21.36;47.39
70158;BME280;57524;48.312;7.938;2022-07-11T09:29:01;99811.66;;;21.37;46.57
70158;BME280;57524;48.312;7.938;2022-07-11T09:31:30;99808.38;;;21.32;46.51
70158;BME280;57524;48.312;7.938;2022-07-11T09:33:58;99808.38;;;21.32;46.68
70158;BME280;57524;48.312;7.938;2022-07-11T09:36:33;99808.78;;;21.40;46.47
70158;BME280;57524;48.312;7.938;2022-07-11T09:39:03;99807.47;;;21.47;46.94
70158;BME280;57524;48.312;7.938;2022-07-11T09:41:31;99798.28;;;21.51;46.15
70158;BME280;57524;48.312;7.938;2022-07-11T09:44:09;99796.38;;;21.53;46.18
70158;BME280;57524;48.312;7.938;2022-07-11T09:46:36;99801.75;;;21.53;46.48
70158;BME280;57524;48.312;7.938;2022-07-11T09:49:03;99800.63;;;21.72;46.67
70158;BME280;57524;48.312;7.938;2022-07-11T09:51:31;99797.97;;;21.86;46.01
70158;BME280;57524;48.312;7.938;2022-07-11T09:53:58;99791.81;;;21.98;46.56
70158;BME280;57524;48.312;7.938;2022-07-11T09:56:32;99792.38;;;22.04;45.60
70158;BME280;57524;48.312;7.938;2022-07-11T09:58:59;99795.53;;;22.10;47.23
70158;BME280;57524;48.312;7.938;2022-07-11T10:01:27;99793.97;;;22.22;45.80
70158;BME280;57524;48.312;7.938;2022-07-11T10:03:54;99799.81;;;22.29;45.90
70158;BME280;57524;48.312;7.938;2022-07-11T10:06:21;99803.69;;;22.37;45.05
70158;BME280;57524;48.312;7.938;2022-07-11T10:08:48;99806.97;;;22.42;44.51
70158;BME280;57524;48.312;7.938;2022-07-11T10:11:15;99797.16;;;22.41;44.05
70158;BME280;57524;48.312;7.938;2022-07-11T10:13:43;99801.59;;;22.42;44.76
70158;BME280;57524;48.312;7.938;2022-07-11T10:16:35;99799.84;;;22.41;45.16
70158;BME280;57524;48.312;7.938;2022-07-11T10:19:13;99797.34;;;22.53;45.43
70158;BME280;57524;48.312;7.938;2022-07-11T10:21:45;99795.03;;;22.61;45.69
70158;BME280;57524;48.312;7.938;2022-07-11T10:24:24;99787.34;;;22.69;45.64
70158;BME280;57524;48.312;7.938;2022-07-11T10:26:59;99781.75;;;22.72;45.07
70158;BME280;57524;48.312;7.938;2022-07-11T10:29:32;99790.34;;;22.77;44.36
70158;BME280;57524;48.312;7.938;2022-07-11T10:32:07;99787.28;;;22.83;44.34
70158;BME280;57524;48.312;7.938;2022-07-11T10:34:34;99789.44;;;22.91;44.66
70158;BME280;57524;48.312;7.938;2022-07-11T10:37:02;99780.88;;;22.99;44.71
70158;BME280;57524;48.312;7.938;2022-07-11T10:39:30;99783.81;;;23.09;45.19
70158;BME280;57524;48.312;7.938;2022-07-11T10:41:59;99771.06;;;23.25;44.92
70158;BME280;57524;48.312;7.938;2022-07-11T10:44:27;99772.25;;;23.34;44.56
70158;BME280;57524;48.312;7.938;2022-07-11T10:46:56;99771.75;;;23.41;44.74
70158;BME280;57524;48.312;7.938;2022-07-11T10:49:36;99776.56;;;23.49;44.78
70158;BME280;57524;48.312;7.938;2022-07-11T10:52:05;99776.81;;;23.59;44.46
70158;BME280;57524;48.312;7.938;2022-07-11T10:54:49;99782.41;;;23.69;44.34
70158;BME280;57524;48.312;7.938;2022-07-11T10:57:22;99772.97;;;23.76;44.37
70158;BME280;57524;48.312;7.938;2022-07-11T10:59:58;99761.53;;;23.85;44.07
70158;BME280;57524;48.312;7.938;2022-07-11T11:02:27;99762.72;;;23.94;43.53
70158;BME280;57524;48.312;7.938;2022-07-11T11:04:54;99759.91;;;23.95;42.70
70158;BME280;57524;48.312;7.938;2022-07-11T11:07:28;99765.41;;;24.06;42.85
70158;BME280;57524;48.312;7.938;2022-07-11T11:09:55;99767.94;;;24.21;43.01
70158;BME280;57524;48.312;7.938;2022-07-11T11:15:33;99759.34;;;24.16;43.31
70158;BME280;57524;48.312;7.938;2022-07-11T11:18:35;99756.31;;;24.20;42.55
70158;BME280;57524;48.312;7.938;2022-07-11T11:21:22;99756.50;;;24.30;41.47
70158;BME280;57524;48.312;7.938;2022-07-11T11:24:04;99745.03;;;24.39;42.32
70158;BME280;57524;48.312;7.938;2022-07-11T11:26:57;99743.94;;;24.55;41.47
70158;BME280;57524;48.312;7.938;2022-07-11T11:29:26;99744.97;;;24.65;41.28
70158;BME280;57524;48.312;7.938;2022-07-11T11:31:59;99743.88;;;24.67;40.32
70158;BME280;57524;48.312;7.938;2022-07-11T11:34:27;99748.38;;;24.80;41.51
70158;BME280;57524;48.312;7.938;2022-07-11T11:36:55;99740.44;;;24.89;41.11
70158;BME280;57524;48.312;7.938;2022-07-11T11:39:27;99745.47;;;24.94;40.73
70158;BME280;57524;48.312;7.938;2022-07-11T11:42:01;99751.78;;;24.82;40.61
70158;BME280;57524;48.312;7.938;2022-07-11T11:44:27;99742.78;;;24.70;41.34
70158;BME280;57524;48.312;7.938;2022-07-11T11:46:54;99738.09;;;24.61;40.66
70158;BME280;57524;48.312;7.938;2022-07-11T11:49:21;99744.47;;;24.47;41.08
70158;BME280;57524;48.312;7.938;2022-07-11T11:51:49;99745.03;;;24.52;41.33
70158;BME280;57524;48.312;7.938;2022-07-11T11:54:22;99738.34;;;24.58;41.21
70158;BME280;57524;48.312;7.938;2022-07-11T11:56:49;99738.50;;;24.67;41.32
70158;BME280;57524;48.312;7.938;2022-07-11T11:59:16;99738.66;;;24.77;40.88
70158;BME280;57524;48.312;7.938;2022-07-11T12:01:44;99729.81;;;24.75;41.13
70158;BME280;57524;48.312;7.938;2022-07-11T12:04:13;99734.31;;;24.87;41.52
70158;BME280;57524;48.312;7.938;2022-07-11T12:06:41;99731.19;;;25.05;39.55
70158;BME280;57524;48.312;7.938;2022-07-11T12:09:12;99730.22;;;25.17;40.21
70158;BME280;57524;48.312;7.938;2022-07-11T12:11:40;99727.59;;;25.28;39.65
70158;BME280;57524;48.312;7.938;2022-07-11T12:14:08;99723.19;;;25.39;39.44
70158;BME280;57524;48.312;7.938;2022-07-11T12:16:39;99715.59;;;25.44;39.06
70158;BME280;57524;48.312;7.938;2022-07-11T12:19:09;99715.59;;;25.55;39.02
70158;BME280;57524;48.312;7.938;2022-07-11T12:21:37;99705.06;;;25.63;38.46
70158;BME280;57524;48.312;7.938;2022-07-11T12:24:06;99713.16;;;25.75;38.96
70158;BME280;57524;48.312;7.938;2022-07-11T12:26:37;99708.88;;;25.72;38.54
70158;BME280;57524;48.312;7.938;2022-07-11T12:29:09;99700.63;;;25.73;38.62
70158;BME280;57524;48.312;7.938;2022-07-11T12:31:44;99702.09;;;25.78;38.31
70158;BME280;57524;48.312;7.938;2022-07-11T12:34:12;99703.31;;;25.73;38.39
70158;BME280;57524;48.312;7.938;2022-07-11T12:36:39;99695.97;;;25.87;38.16
70158;BME280;57524;48.312;7.938;2022-07-11T12:39:05;99694.66;;;25.92;38.79
70158;BME280;57524;48.312;7.938;2022-07-11T12:41:33;99694.88;;;25.89;38.67
70158;BME280;57524;48.312;7.938;2022-07-11T12:44:01;99690.94;;;25.93;38.47
70158;BME280;57524;48.312;7.938;2022-07-11T12:46:46;99681.00;;;26.05;38.38
70158;BME280;57524;48.312;7.938;2022-07-11T12:49:14;99679.25;;;26.16;37.69
70158;BME280;57524;48.312;7.938;2022-07-11T12:51:42;99680.22;;;26.26;38.51
70158;BME280;57524;48.312;7.938;2022-07-11T12:54:10;99682.03;;;26.37;37.38
70158;BME280;57524;48.312;7.938;2022-07-11T12:56:38;99687.03;;;26.52;38.00
70158;BME280;57524;48.312;7.938;2022-07-11T12:59:06;99701.06;;;26.58;37.82
70158;BME280;57524;48.312;7.938;2022-07-11T13:01:54;99692.69;;;26.49;37.71
70158;BME280;57524;48.312;7.938;2022-07-11T13:04:31;99687.50;;;26.69;38.05
70158;BME280;57524;48.312;7.938;2022-07-11T13:06:58;99670.47;;;26.78;37.63
70158;BME280;57524;48.312;7.938;2022-07-11T13:09:42;99681.44;;;26.98;37.33